Time;durP1;ratioP1;P1;durP2;ratioP2;P2;SDS_P1;SDS_P2;PMS_P1;PMS_P2;Temp;Humidity;BMP_temperature;BMP_pressure;BME280_temperature;BME280_humidity;BME280_pressure;Samples;Min_cycle;Max_cycle;Signal;HPM_P1;HPM_P2
2021/06/17 00:07:22;;;;;;;10.70;6.90;;;20.90;99.90;;;;;;6236436;22;20024;-90
2021/06/17 00:10:33;;;;;;;14.32;8.40;;;20.90;99.90;;;;;;6184319;23;20021;-92
2021/06/17 00:14:07;;;;;;;13.35;5.55;;;20.90;99.90;;;;;;6165794;23;20068;-92
2021/06/17 00:21:24;;;;;;;11.20;7.43;;;20.80;99.90;;;;;;6231193;23;20027;-92
2021/06/17 00:24:25;;;;;;;13.52;8.07;;;20.80;99.90;;;;;;6187214;23;20021;-93
2021/06/17 00:27:37;;;;;;;12.90;6.22;;;20.80;99.90;;;;;;6165640;23;20005;-92
2021/06/17 00:30:56;;;;;;;9.73;5.25;;;20.90;99.90;;;;;;6167734;23;20064;-92
2021/06/17 00:33:56;;;;;;;15.88;7.88;;;20.90;99.90;;;;;;6212652;23;20042;-90
2021/06/17 00:36:48;;;;;;;14.43;9.23;;;20.70;99.90;;;;;;6191633;23;20021;-91
2021/06/17 00:39:33;;;;;;;13.98;7.90;;;20.90;99.90;;;;;;6211920;23;20004;-92
2021/06/17 00:42:41;;;;;;;18.92;8.85;;;20.90;99.90;;;;;;6238627;22;20027;-92
2021/06/17 00:45:40;;;;;;;13.43;7.80;;;20.90;99.90;;;;;;6214247;23;20072;-91
2021/06/17 00:52:53;;;;;;;15.75;7.60;;;20.90;99.90;;;;;;6163194;23;20021;-92
2021/06/17 00:59:27;;;;;;;15.88;7.57;;;20.80;99.90;;;;;;6240057;23;20008;-91
2021/06/17 01:03:29;;;;;;;13.52;7.22;;;20.80;99.90;;;;;;6254347;22;20050;-92
2021/06/17 01:07:50;;;;;;;17.08;9.48;;;19.60;99.90;;;;;;6278740;23;20072;-93
2021/06/17 01:12:26;;;;;;;15.65;9.45;;;20.70;99.90;;;;;;6270136;22;20027;-92
2021/06/17 01:16:46;;;;;;;13.43;7.63;;;20.80;99.90;;;;;;6187910;23;20024;-92
2021/06/17 01:20:15;;;;;;;14.63;7.95;;;20.70;99.90;;;;;;6168627;23;20025;-91
2021/06/17 01:32:35;;;;;;;11.50;7.20;;;20.70;99.90;;;;;;6175061;22;20025;-93
2021/06/17 01:36:31;;;;;;;12.32;7.88;;;20.60;99.90;;;;;;6177802;23;20019;-92
2021/06/17 01:40:42;;;;;;;12.98;9.02;;;20.60;99.90;;;;;;6233377;23;20012;-92
2021/06/17 01:45:12;;;;;;;14.15;6.88;;;20.60;99.90;;;;;;6248020;23;20358;-92
2021/06/17 01:48:26;;;;;;;12.32;7.47;;;19.60;99.90;;;;;;6211387;23;20020;-92
2021/06/17 01:52:19;;;;;;;17.27;8.27;;;20.60;99.90;;;;;;6231752;23;20111;-94
2021/06/17 01:55:02;;;;;;;12.60;7.80;;;20.60;99.90;;;;;;6192804;23;20020;-92
2021/06/17 01:58:07;;;;;;;16.13;8.80;;;20.60;99.90;;;;;;6242394;23;20016;-93
2021/06/17 02:00:59;;;;;;;15.00;8.23;;;20.60;99.90;;;;;;6200768;23;20076;-92
2021/06/17 02:04:05;;;;;;;15.23;8.68;;;20.70;99.90;;;;;;6195616;23;20020;-92
2021/06/17 02:11:10;;;;;;;12.30;6.80;;;20.70;99.90;;;;;;6239947;23;20016;-93
2021/06/17 02:14:26;;;;;;;16.60;8.27;;;20.60;99.90;;;;;;6254279;23;20474;-91
2021/06/17 02:17:25;;;;;;;12.20;7.40;;;20.50;99.90;;;;;;6217466;23;20016;-92
2021/06/17 02:20:42;;;;;;;16.25;8.70;;;20.70;99.90;;;;;;6234963;23;20024;-92
2021/06/17 02:23:54;;;;;;;11.60;7.03;;;20.40;99.90;;;;;;6197655;23;20026;-92
2021/06/17 02:27:09;;;;;;;14.60;7.63;;;20.40;99.90;;;;;;6216709;23;20012;-92
2021/06/17 02:30:08;;;;;;;11.65;6.65;;;20.40;99.90;;;;;;6233186;23;20016;-92
2021/06/17 02:33:26;;;;;;;11.13;5.47;;;20.40;99.90;;;;;;6217295;23;20019;-93
2021/06/17 02:40:58;;;;;;;11.68;5.85;;;20.40;99.90;;;;;;6179707;23;20023;-91
2021/06/17 02:44:10;;;;;;;10.40;6.18;;;20.30;99.90;;;;;;6241255;23;20020;-92
2021/06/17 02:47:11;;;;;;;11.30;6.18;;;20.30;99.90;;;;;;6241824;23;20026;-92
2021/06/17 02:50:10;;;;;;;12.98;6.60;;;20.30;99.90;;;;;;6237292;23;20012;-92
2021/06/17 02:53:22;;;;;;;10.60;5.65;;;19.30;99.90;;;;;;6213423;23;20027;-91
2021/06/17 02:57:12;;;;;;;13.70;6.68;;;20.20;99.90;;;;;;6257653;23;20344;-93
2021/06/17 03:00:38;;;;;;;12.40;7.70;;;20.20;99.90;;;;;;6265325;22;20080;31
2021/06/17 03:04:16;;;;;;;17.17;6.72;;;20.20;99.90;;;;;;6158027;23;20006;-93
2021/06/17 03:07:26;;;;;;;12.18;7.95;;;20.10;99.90;;;;;;6163389;23;20028;-93
2021/06/17 03:10:33;;;;;;;14.70;7.22;;;20.00;99.90;;;;;;6165844;23;20028;-93
2021/06/17 03:13:29;;;;;;;11.55;6.93;;;20.00;99.90;;;;;;6170062;23;20026;-92
2021/06/17 03:21:02;;;;;;;13.07;6.70;;;20.00;99.90;;;;;;6174844;23;20024;-92
2021/06/17 03:24:06;;;;;;;11.38;6.55;;;21.90;99.90;;;;;;6173526;23;20028;-93
2021/06/17 03:27:41;;;;;;;12.88;6.07;;;20.00;99.90;;;;;;6151104;23;20009;-93
2021/06/17 03:31:06;;;;;;;17.00;7.82;;;20.00;99.90;;;;;;6177137;23;20019;-93
2021/06/17 03:34:50;;;;;;;13.32;6.68;;;20.00;99.90;;;;;;6179676;23;20031;-93
2021/06/17 03:47:08;;;;;;;12.25;6.72;;;20.10;99.90;;;;;;6178463;23;20073;-93
2021/06/17 03:50:57;;;;;;;13.40;6.47;;;20.00;99.90;;;;;;6128152;23;20033;-93
2021/06/17 03:54:01;;;;;;;11.60;7.05;;;19.90;99.90;;;;;;6071475;23;20018;-92
2021/06/17 03:57:14;;;;;;;14.13;6.68;;;19.90;99.90;;;;;;6101763;23;20014;-93
2021/06/17 04:00:05;;;;;;;13.23;7.18;;;20.10;99.90;;;;;;6043986;23;20022;-92
2021/06/17 04:03:43;;;;;;;12.45;6.95;;;19.90;99.90;;;;;;6039212;23;20027;-93
2021/06/17 04:07:33;;;;;;;13.23;6.40;;;19.80;99.90;;;;;;6060678;23;20038;-93
2021/06/17 04:11:30;;;;;;;15.32;7.40;;;19.00;99.90;;;;;;6012850;24;20048;-93
2021/06/17 04:14:37;;;;;;;15.10;7.53;;;19.80;99.90;;;;;;5978709;24;20024;-94
2021/06/17 04:17:56;;;;;;;13.90;7.07;;;19.80;99.90;;;;;;5968541;24;20034;-93
2021/06/17 04:20:43;;;;;;;11.98;7.15;;;19.70;99.90;;;;;;5977476;24;20024;-92
2021/06/17 04:23:36;;;;;;;14.23;8.02;;;20.40;99.90;;;;;;5976812;24;20016;-93
2021/06/17 04:26:37;;;;;;;14.65;8.10;;;19.80;99.90;;;;;;5999247;24;20024;-92
2021/06/17 04:29:58;;;;;;;11.68;7.25;;;19.80;99.90;;;;;;6026526;23;20022;-92
2021/06/17 04:33:20;;;;;;;15.40;7.10;;;19.80;99.90;;;;;;5990036;23;20032;-93
2021/06/17 04:36:39;;;;;;;11.80;7.63;;;19.80;99.90;;;;;;6006937;23;20007;-93
2021/06/17 04:40:00;;;;;;;12.38;7.93;;;19.80;99.90;;;;;;6014056;23;20030;-93
2021/06/17 04:43:05;;;;;;;10.85;7.32;;;20.20;99.90;;;;;;6029033;23;20023;-93
2021/06/17 04:46:23;;;;;;;17.80;8.13;;;19.90;99.90;;;;;;6021324;23;20019;-93
2021/06/17 04:49:17;;;;;;;11.55;7.03;;;19.90;99.90;;;;;;6027151;23;20019;-92
2021/06/17 04:52:13;;;;;;;13.90;7.05;;;19.80;99.90;;;;;;6028671;23;20030;-92
2021/06/17 04:54:45;;;;;;;12.63;6.53;;;19.70;99.90;;;;;;6049948;23;20041;-93
2021/06/17 04:57:53;;;;;;;14.35;7.28;;;19.70;99.90;;;;;;6186390;23;20012;-92
2021/06/17 05:00:46;;;;;;;13.20;7.07;;;19.80;99.90;;;;;;6217641;23;20009;-93
2021/06/17 05:03:45;;;;;;;11.75;7.10;;;19.70;99.90;;;;;;6205055;23;20013;-93
2021/06/17 05:16:34;;;;;;;11.18;7.18;;;19.80;99.90;;;;;;6179745;23;20023;-92
2021/06/17 05:19:30;;;;;;;11.35;7.03;;;19.80;99.90;;;;;;6182985;23;20020;-92
2021/06/17 05:22:15;;;;;;;10.57;7.13;;;19.90;99.90;;;;;;6153270;23;20021;-92
2021/06/17 05:25:05;;;;;;;15.60;7.38;;;19.90;99.90;;;;;;6178478;23;20028;-92
2021/06/17 05:27:51;;;;;;;15.00;6.57;;;19.90;99.90;;;;;;6155699;23;20020;-92
2021/06/17 05:31:07;;;;;;;22.73;9.35;;;20.00;99.90;;;;;;6205548;23;20079;-92
2021/06/17 05:34:03;;;;;;;12.05;5.82;;;20.00;99.90;;;;;;6207531;23;20018;-92
2021/06/17 05:36:52;;;;;;;20.23;7.18;;;20.00;99.90;;;;;;6185006;23;20016;-92
2021/06/17 05:40:05;;;;;;;18.45;7.35;;;20.00;99.90;;;;;;6203624;22;20467;-92
2021/06/17 05:43:20;;;;;;;15.30;8.55;;;20.10;99.90;;;;;;6194546;23;20023;-93
2021/06/17 05:47:14;;;;;;;17.27;7.75;;;19.00;99.90;;;;;;6215687;23;20031;-92
2021/06/17 05:53:35;;;;;;;12.27;6.60;;;20.30;99.90;;;;;;6063707;23;20030;-92
2021/06/17 05:56:15;;;;;;;13.90;7.60;;;20.40;99.90;;;;;;6043898;23;20015;-92
2021/06/17 05:59:23;;;;;;;9.38;5.82;;;20.40;99.90;;;;;;6085575;23;20471;-92
2021/06/17 06:02:36;;;;;;;13.63;6.97;;;20.50;99.90;;;;;;6084846;23;20018;-90
2021/06/17 06:10:11;;;;;;;12.85;6.72;;;20.50;99.90;;;;;;6218400;23;20031;-92
2021/06/17 06:13:30;;;;;;;16.85;7.57;;;20.40;99.90;;;;;;6243002;23;20017;-91
2021/06/17 06:16:46;;;;;;;14.82;8.02;;;20.50;99.90;;;;;;6222996;23;20016;-90
2021/06/17 06:19:59;;;;;;;15.02;9.00;;;20.40;99.90;;;;;;6240984;23;20034;-90
2021/06/17 06:23:19;;;;;;;15.50;8.55;;;20.40;99.90;;;;;;6240475;23;20022;-90
2021/06/17 06:27:20;;;;;;;21.13;9.85;;;20.50;99.90;;;;;;6238249;23;20016;-91
2021/06/17 06:30:22;;;;;;;11.60;7.65;;;20.50;99.90;;;;;;6210928;23;20012;-91
2021/06/17 06:32:59;;;;;;;12.93;7.75;;;20.40;99.90;;;;;;6252948;22;20024;-89
2021/06/17 06:36:11;;;;;;;26.45;9.27;;;20.30;99.90;;;;;;6177472;23;20017;-90
2021/06/17 06:38:47;;;;;;;14.85;7.05;;;20.30;99.90;;;;;;6153236;23;20025;-89
2021/06/17 06:41:18;;;;;;;11.95;7.10;;;20.20;99.90;;;;;;6149004;23;20029;-90
2021/06/17 06:44:24;;;;;;;15.40;7.13;;;20.20;99.90;;;;;;6148384;23;20029;-90
2021/06/17 06:47:00;;;;;;;15.40;8.50;;;20.20;99.90;;;;;;6171006;23;20021;-90
2021/06/17 06:49:30;;;;;;;;;;;19.50;99.90;;;;;;6169816;23;20019;-89
2021/06/17 06:55:21;;;;;;;16.70;9.27;;;20.30;99.90;;;;;;6173188;22;20020;-88
2021/06/17 06:58:14;;;;;;;;;;;20.30;99.90;;;;;;6192685;23;20031;-88
2021/06/17 07:01:52;;;;;;;15.10;9.38;;;20.30;99.90;;;;;;6233638;23;19919;-90
2021/06/17 07:05:34;;;;;;;17.85;9.40;;;20.40;99.90;;;;;;6186069;23;20028;31
2021/06/17 07:08:11;;;;;;;17.90;9.73;;;20.70;99.90;;;;;;6102419;23;20032;-87
2021/06/17 07:10:46;;;;;;;18.80;10.85;;;20.60;99.90;;;;;;6122745;23;20006;-89
2021/06/17 07:13:15;;;;;;;21.30;9.15;;;20.70;99.90;;;;;;6141334;23;20030;-88
2021/06/17 07:15:44;;;;;;;9.63;6.15;;;20.80;99.90;;;;;;6116179;23;20025;-89
2021/06/17 07:18:18;;;;;;;15.80;7.20;;;20.80;99.90;;;;;;6139319;23;20018;-88
2021/06/17 07:20:53;;;;;;;9.45;5.63;;;20.80;99.90;;;;;;6140251;23;20024;-88
2021/06/17 07:23:27;;;;;;;13.00;5.95;;;20.90;99.90;;;;;;6112491;23;20032;-89
2021/06/17 07:26:04;;;;;;;11.98;6.10;;;20.90;99.90;;;;;;6134725;23;20029;-88
2021/06/17 07:28:37;;;;;;;12.70;6.60;;;21.00;99.90;;;;;;6180738;22;20020;-88
2021/06/17 07:31:15;;;;;;;10.40;5.32;;;21.00;99.90;;;;;;6161766;23;20039;-90
2021/06/17 07:33:47;;;;;;;19.38;7.88;;;21.10;99.90;;;;;;6177793;23;20019;-87
2021/06/17 07:36:17;;;;;;;11.73;6.75;;;21.10;99.90;;;;;;6229740;23;20020;-91
2021/06/17 07:38:48;;;;;;;14.18;6.78;;;21.10;99.90;;;;;;6180645;23;20012;-90
2021/06/17 07:41:16;;;;;;;10.93;6.93;;;21.10;99.90;;;;;;6204522;23;20024;-89
2021/06/17 07:43:44;;;;;;;12.10;5.63;;;21.20;99.90;;;;;;6154517;23;20016;-87
2021/06/17 07:46:18;;;;;;;15.48;8.02;;;21.20;99.90;;;;;;6178210;23;20017;-91
2021/06/17 07:48:49;;;;;;;13.38;7.15;;;21.20;99.90;;;;;;6227136;23;20022;-87
2021/06/17 07:51:19;;;;;;;19.55;8.02;;;21.50;99.90;;;;;;6178405;23;20025;-88
2021/06/17 07:54:01;;;;;;;11.48;6.07;;;21.30;99.90;;;;;;6199174;23;20020;-91
2021/06/17 07:56:37;;;;;;;12.75;6.75;;;21.50;99.90;;;;;;6178394;23;20016;-87
2021/06/17 07:59:12;;;;;;;8.60;4.55;;;21.50;99.90;;;;;;6210283;23;20020;-89
2021/06/17 08:01:43;;;;;;;10.23;5.25;;;21.60;99.90;;;;;;6256128;23;20020;-88
2021/06/17 08:04:27;;;;;;;12.07;5.80;;;21.60;99.90;;;;;;6233610;23;20031;-88
2021/06/17 08:06:59;;;;;;;13.98;6.38;;;21.70;99.90;;;;;;6254545;23;20036;-88
2021/06/17 08:09:38;;;;;;;15.15;5.70;;;21.70;99.90;;;;;;6207564;23;20026;-88
2021/06/17 08:12:30;;;;;;;10.50;6.10;;;21.70;99.90;;;;;;6234433;23;20028;-87
2021/06/17 08:15:05;;;;;;;13.32;5.97;;;21.60;99.90;;;;;;6210140;23;20016;-87
2021/06/17 08:17:37;;;;;;;13.45;5.88;;;21.60;99.90;;;;;;6208583;23;20050;-87
2021/06/17 08:20:12;;;;;;;14.80;6.90;;;22.10;99.90;;;;;;6205828;23;20364;-87
2021/06/17 08:23:10;;;;;;;18.73;7.00;;;21.60;99.90;;;;;;6229006;23;20019;-88
2021/06/17 08:25:45;;;;;;;12.05;6.68;;;21.50;99.90;;;;;;6201005;23;20024;-88
2021/06/17 08:28:14;;;;;;;11.65;7.47;;;21.50;99.90;;;;;;6203309;23;20030;-86
2021/06/17 08:30:42;;;;;;;13.80;7.07;;;21.50;99.90;;;;;;6262517;22;20026;-87
2021/06/17 08:33:13;;;;;;;14.20;9.07;;;21.50;99.90;;;;;;6269741;22;20016;-87
2021/06/17 08:35:42;;;;;;;12.88;7.97;;;21.50;99.90;;;;;;6260024;22;20020;-87
2021/06/17 08:38:12;;;;;;;15.20;7.40;;;21.40;99.90;;;;;;6289719;22;20429;-86
2021/06/17 08:40:52;;;;;;;14.80;7.33;;;21.40;99.90;;;;;;6258769;22;20029;-87
2021/06/17 08:47:40;;;;;;;;;;;;;;;;;;;;;
2021/06/17 08:51:32;;;;;;;13.20;6.53;;;21.30;99.90;;;;;;6283566;22;20037;-87
2021/06/17 08:54:32;;;;;;;11.93;6.72;;;21.30;99.90;;;;;;6273051;22;20027;-87
2021/06/17 08:57:08;;;;;;;15.80;7.85;;;21.20;99.90;;;;;;6210256;22;20023;-86
2021/06/17 08:59:59;;;;;;;14.10;7.65;;;21.20;99.90;;;;;;6239776;22;20019;-88
2021/06/17 09:03:15;;;;;;;18.02;9.50;;;21.10;99.90;;;;;;6290206;22;20150;-88
2021/06/17 09:05:57;;;;;;;21.98;14.10;;;21.10;99.90;;;;;;6255041;22;20034;-87
2021/06/17 09:08:43;;;;;;;26.60;16.40;;;21.00;99.90;;;;;;6238300;22;20020;-88
2021/06/17 09:11:29;;;;;;;27.38;16.75;;;20.90;99.90;;;;;;6289216;22;20016;-87
2021/06/17 09:14:24;;;;;;;24.65;16.00;;;20.80;99.90;;;;;;6215309;22;20027;-89
2021/06/17 09:17:23;;;;;;;28.02;17.17;;;20.80;99.90;;;;;;6265910;22;20026;-87
2021/06/17 09:19:57;;;;;;;23.20;14.90;;;21.00;99.90;;;;;;6241715;22;20012;-88
2021/06/17 09:22:46;;;;;;;26.70;15.85;;;20.70;99.90;;;;;;6261001;22;20030;-88
2021/06/17 09:25:49;;;;;;;24.48;14.85;;;21.40;99.90;;;;;;6261946;22;20030;-88
2021/06/17 09:29:19;;;;;;;29.27;17.30;;;20.70;99.90;;;;;;6212349;22;20020;-89
2021/06/17 09:32:31;;;;;;;30.77;18.95;;;20.60;99.90;;;;;;6100226;23;20031;-85
2021/06/17 09:35:14;;;;;;;;;;;20.80;99.90;;;;;;6160685;23;20024;-86
2021/06/17 09:38:10;;;;;;;23.23;14.18;;;20.10;99.90;;;;;;6156872;23;19947;-86
2021/06/17 09:41:13;;;;;;;24.63;16.95;;;21.00;99.90;;;;;;6216087;23;20085;-86
2021/06/17 09:43:49;;;;;;;22.90;15.45;;;20.80;99.90;;;;;;6233615;23;20020;-86
2021/06/17 09:46:50;;;;;;;26.95;15.65;;;20.90;99.90;;;;;;6188446;23;20023;-87
2021/06/17 09:49:35;;;;;;;30.35;18.52;;;20.90;99.90;;;;;;6230363;23;20451;-87
2021/06/17 09:52:09;;;;;;;27.58;17.48;;;21.00;99.90;;;;;;6203725;23;20024;-86
2021/06/17 09:55:42;;;;;;;30.10;18.45;;;20.80;99.90;;;;;;6214103;22;20019;-87
2021/06/17 09:58:39;;;;;;;32.58;19.40;;;20.70;99.90;;;;;;6260250;22;20016;-87
2021/06/17 10:01:48;;;;;;;33.22;19.42;;;20.80;99.90;;;;;;6266286;22;20020;-87
2021/06/17 10:04:28;;;;;;;31.48;19.30;;;20.60;99.90;;;;;;6237751;22;20063;-87
2021/06/17 10:07:25;;;;;;;25.75;16.80;;;20.60;99.90;;;;;;6254435;22;20444;-88
2021/06/17 10:10:22;;;;;;;25.98;16.88;;;20.50;99.90;;;;;;6277575;22;20028;-89
2021/06/17 10:12:59;;;;;;;23.92;15.55;;;20.50;99.90;;;;;;6216489;22;20025;-88
2021/06/17 10:15:38;;;;;;;24.73;15.07;;;20.50;99.90;;;;;;6266220;22;20028;-88
2021/06/17 10:18:28;;;;;;;25.38;15.70;;;20.60;99.90;;;;;;6263051;22;20026;-87
2021/06/17 10:20:57;;;;;;;29.10;16.20;;;20.60;99.90;;;;;;6236244;22;20030;-87
2021/06/17 10:23:53;;;;;;;22.83;14.00;;;20.70;99.90;;;;;;6268334;22;20030;-88
2021/06/17 10:26:52;;;;;;;23.90;15.52;;;20.80;99.90;;;;;;6271607;22;20021;-87
2021/06/17 10:29:44;;;;;;;23.63;15.50;;;20.80;99.90;;;;;;6294908;22;20443;-87
2021/06/17 10:32:43;;;;;;;24.20;15.23;;;20.70;99.90;;;;;;6291736;22;20029;-87
2021/06/17 10:35:29;;;;;;;24.48;14.27;;;20.70;99.90;;;;;;6220456;22;20019;-87
2021/06/17 10:38:07;;;;;;;24.95;13.38;;;20.70;99.90;;;;;;6231438;22;20020;-87
2021/06/17 10:41:00;;;;;;;23.63;13.27;;;20.60;99.90;;;;;;6262985;22;20028;-86
2021/06/17 10:43:42;;;;;;;20.23;13.88;;;20.60;99.90;;;;;;6261922;22;20351;-87
2021/06/17 10:46:45;;;;;;;24.77;14.75;;;20.60;99.90;;;;;;6261904;22;20049;-88
2021/06/17 10:49:49;;;;;;;24.05;14.32;;;20.70;99.90;;;;;;6261073;22;20026;-87
2021/06/17 10:52:43;;;;;;;15.65;10.45;;;20.70;99.90;;;;;;6240369;22;20363;-86
2021/06/17 10:55:27;;;;;;;17.92;10.55;;;20.70;99.90;;;;;;6269629;22;20019;-87
2021/06/17 10:57:57;;;;;;;14.90;9.73;;;20.70;99.90;;;;;;6289854;22;20020;-86
2021/06/17 11:00:28;;;;;;;18.35;11.27;;;20.80;99.90;;;;;;6208923;22;20023;-88
2021/06/17 11:03:04;;;;;;;15.23;9.15;;;20.90;99.90;;;;;;6283977;22;20026;-88
2021/06/17 11:05:36;;;;;;;18.52;8.75;;;20.90;99.90;;;;;;6258407;22;20026;-87
2021/06/17 11:08:20;;;;;;;18.85;5.15;;;20.90;99.90;;;;;;6236993;22;20020;-86
2021/06/17 11:11:08;;;;;;;10.75;6.75;;;20.90;99.90;;;;;;6234612;22;20030;-88
2021/06/17 11:13:48;;;;;;;10.43;6.28;;;20.90;99.90;;;;;;6288320;22;20023;-87
2021/06/17 11:16:20;;;;;;;11.10;5.90;;;20.30;99.90;;;;;;6212894;22;20007;-87
2021/06/17 11:18:57;;;;;;;14.52;7.90;;;21.10;99.90;;;;;;6239295;22;20020;-89
2021/06/17 11:21:31;;;;;;;10.82;6.45;;;21.00;99.90;;;;;;6265453;22;20018;-86
2021/06/17 11:24:09;;;;;;;10.63;6.00;;;21.10;99.90;;;;;;6262311;22;20564;-89
2021/06/17 11:26:57;;;;;;;14.47;7.40;;;21.10;99.90;;;;;;6263827;22;20019;-86
2021/06/17 11:29:38;;;;;;;11.85;6.80;;;21.10;99.90;;;;;;6262858;22;20011;-86
2021/06/17 11:32:29;;;;;;;12.38;7.57;;;21.10;99.90;;;;;;6239964;22;20016;-87
2021/06/17 11:35:00;;;;;;;13.90;8.30;;;21.20;99.90;;;;;;6261718;22;20034;-90
2021/06/17 11:37:34;;;;;;;12.68;6.85;;;21.10;99.90;;;;;;6292912;22;20016;-89
2021/06/17 11:40:06;;;;;;;11.65;7.00;;;21.10;99.90;;;;;;6262480;22;20018;-87
2021/06/17 11:42:35;;;;;;;15.43;7.47;;;21.20;99.90;;;;;;6290583;22;20026;-88
2021/06/17 11:45:10;;;;;;;11.00;6.97;;;21.20;99.90;;;;;;6256846;22;20023;-86
2021/06/17 11:47:45;;;;;;;11.85;7.07;;;21.20;99.90;;;;;;6236532;22;20015;-86
2021/06/17 11:50:23;;;;;;;12.20;6.78;;;21.20;99.90;;;;;;6287954;22;20448;-88
2021/06/17 11:52:52;;;;;;;12.98;6.45;;;21.30;99.90;;;;;;6238109;22;20022;-87
2021/06/17 11:55:26;;;;;;;13.02;7.32;;;21.30;99.90;;;;;;6284283;22;20026;-88
2021/06/17 11:58:08;;;;;;;13.52;7.53;;;21.40;99.90;;;;;;6235434;22;20024;-86
2021/06/17 12:00:41;;;;;;;10.52;6.38;;;21.40;99.90;;;;;;6286898;22;20022;-87
2021/06/17 12:03:26;;;;;;;21.60;7.95;;;21.50;99.90;;;;;;6234253;22;20034;-87
2021/06/17 12:06:15;;;;;;;16.27;8.20;;;21.50;99.90;;;;;;6237276;22;20026;-88
2021/06/17 12:08:43;;;;;;;11.57;6.63;;;21.60;99.90;;;;;;6238961;22;20022;-88
2021/06/17 12:11:20;;;;;;;10.65;7.57;;;21.70;99.90;;;;;;6293520;22;20022;-87
2021/06/17 12:13:53;;;;;;;16.02;8.15;;;21.70;99.90;;;;;;6236623;22;20028;-87
2021/06/17 12:16:24;;;;;;;12.02;7.47;;;21.80;99.90;;;;;;6184395;22;20022;-88
2021/06/17 12:18:56;;;;;;;14.30;8.60;;;21.90;99.90;;;;;;6287411;22;20024;-84
2021/06/17 12:21:33;;;;;;;12.40;7.50;;;21.80;99.90;;;;;;6210671;22;20012;-86
2021/06/17 12:24:11;;;;;;;13.82;8.13;;;21.90;99.90;;;;;;6290115;22;20019;-86
2021/06/17 12:26:43;;;;;;;13.80;7.22;;;22.00;99.90;;;;;;6288103;22;20034;-86
2021/06/17 12:29:14;;;;;;;13.68;7.65;;;22.10;99.90;;;;;;6260909;22;20346;-87
2021/06/17 12:31:43;;;;;;;10.37;6.57;;;22.10;99.90;;;;;;6236167;22;20019;-86
2021/06/17 12:34:18;;;;;;;10.70;7.38;;;22.20;99.90;;;;;;6287628;22;20012;-85
2021/06/17 12:37:02;;;;;;;8.82;6.05;;;22.30;99.90;;;;;;6256122;22;20015;-86
2021/06/17 12:39:30;;;;;;;12.13;7.43;;;22.30;99.90;;;;;;6258981;22;20019;-86
2021/06/17 12:41:59;;;;;;;13.55;7.60;;;22.40;99.90;;;;;;6286059;22;20034;-86
2021/06/17 12:44:40;;;;;;;15.50;7.97;;;22.30;99.90;;;;;;6262314;22;20018;-85
2021/06/17 12:47:17;;;;;;;13.77;7.68;;;22.40;99.90;;;;;;6265342;22;20012;-87
2021/06/17 12:53:01;;;;;;;15.70;8.18;;;22.50;99.90;;;;;;6261996;22;20066;-86
2021/06/17 12:55:37;;;;;;;17.77;8.85;;;22.60;99.90;;;;;;6285901;22;20022;-85
2021/06/17 12:58:53;;;;;;;10.38;6.63;;;22.60;99.90;;;;;;6287806;22;20026;-87
2021/06/17 13:01:48;;;;;;;10.65;6.97;;;22.80;99.90;;;;;;6286040;22;20016;-86
2021/06/17 13:04:19;;;;;;;11.02;6.55;;;22.90;99.90;;;;;;6284612;22;20642;-86
2021/06/17 13:06:50;;;;;;;12.48;7.10;;;23.10;99.90;;;;;;6256215;22;20024;-87
2021/06/17 13:09:25;;;;;;;9.43;5.78;;;23.40;99.90;;;;;;6254625;22;20092;-85
2021/06/17 13:12:13;;;;;;;14.25;5.20;;;23.60;99.90;;;;;;6231793;22;20426;-85
2021/06/17 13:15:07;;;;;;;10.63;5.53;;;23.80;99.90;;;;;;6283535;22;20020;-84
2021/06/17 13:17:41;;;;;;;8.48;4.65;;;24.10;99.90;;;;;;6256178;22;20031;-88
2021/06/17 13:20:14;;;;;;;8.65;4.55;;;24.20;99.90;;;;;;6284044;22;20025;-86
2021/06/17 13:22:56;;;;;;;6.50;3.65;;;24.50;99.90;;;;;;6207504;22;20016;-86
2021/06/17 13:25:36;;;;;;;6.30;3.83;;;24.80;99.90;;;;;;6258474;22;20074;-85
2021/06/17 13:28:29;;;;;;;6.30;3.88;;;24.80;99.90;;;;;;6261490;22;20045;-85
2021/06/17 13:30:58;;;;;;;7.20;3.60;;;24.80;99.90;;;;;;6236422;22;20020;-86
2021/06/17 13:33:31;;;;;;;10.32;3.65;;;24.80;99.90;;;;;;6261288;22;20024;-85
2021/06/17 13:36:00;;;;;;;6.80;4.03;;;25.00;99.90;;;;;;6289867;22;20025;-86
2021/06/17 13:38:32;;;;;;;8.65;4.50;;;25.00;99.90;;;;;;6259358;22;20024;-86
2021/06/17 13:41:03;;;;;;;12.10;3.90;;;24.90;99.90;;;;;;6290757;22;20020;-85
2021/06/17 13:43:34;;;;;;;5.30;3.47;;;24.80;99.90;;;;;;6260896;22;20015;-86
2021/06/17 13:46:03;;;;;;;7.05;3.95;;;24.80;99.90;;;;;;6261417;22;20022;-88
2021/06/17 13:48:35;;;;;;;10.90;4.50;;;24.80;99.90;;;;;;6257941;22;20019;-85
2021/06/17 13:51:05;;;;;;;9.15;4.85;;;24.70;99.90;;;;;;6215307;22;20016;-86
2021/06/17 13:53:37;;;;;;;7.43;3.63;;;24.70;99.90;;;;;;6262777;22;20016;-85
2021/06/17 13:56:10;;;;;;;6.25;3.78;;;24.60;99.90;;;;;;6264076;22;20012;-86
2021/06/17 13:58:43;;;;;;;4.88;3.30;;;24.60;99.90;;;;;;6262585;22;20020;-88
2021/06/17 14:01:20;;;;;;;5.07;3.53;;;24.50;99.90;;;;;;6289218;22;20459;-88
2021/06/17 14:03:49;;;;;;;6.28;3.70;;;24.40;99.90;;;;;;6238501;22;20023;-85
2021/06/17 14:06:23;;;;;;;5.05;2.90;;;24.20;99.90;;;;;;6237994;22;20016;-85
2021/06/17 14:08:55;;;;;;;8.40;3.58;;;24.10;99.90;;;;;;6235709;22;20026;-86
2021/06/17 14:11:32;;;;;;;5.72;3.65;;;24.10;99.90;;;;;;6285341;22;20025;-86
2021/06/17 14:14:02;;;;;;;4.10;2.63;;;23.90;99.90;;;;;;6284392;22;20035;-88
2021/06/17 14:16:33;;;;;;;4.97;2.50;;;23.80;99.90;;;;;;6272705;22;20022;-87
2021/06/17 14:19:11;;;;;;;7.60;3.13;;;23.80;99.90;;;;;;6289752;22;20016;-86
2021/06/17 14:21:44;;;;;;;5.25;3.08;;;23.80;99.90;;;;;;6265107;22;20016;-88
2021/06/17 14:24:23;;;;;;;8.63;3.40;;;23.80;99.90;;;;;;6242119;22;20015;-88
2021/06/17 14:26:56;;;;;;;6.13;3.28;;;24.00;99.90;;;;;;6237139;22;20625;-88
2021/06/17 14:29:29;;;;;;;7.13;3.42;;;24.10;99.90;;;;;;6283659;22;20012;-88
2021/06/17 14:32:00;;;;;;;7.28;3.88;;;24.20;99.90;;;;;;6227582;22;20028;-87
2021/06/17 14:34:29;;;;;;;6.65;4.07;;;24.20;99.90;;;;;;6231331;22;20015;-89
2021/06/17 14:37:04;;;;;;;5.60;3.28;;;24.30;99.90;;;;;;6213795;23;20012;-88
2021/06/17 14:39:44;;;;;;;7.60;4.30;;;24.30;99.90;;;;;;6252026;22;20034;-88
2021/06/17 14:42:28;;;;;;;9.10;4.72;;;24.50;99.90;;;;;;6234088;22;20020;-88
2021/06/17 14:45:06;;;;;;;9.20;3.83;;;24.30;99.90;;;;;;6254332;22;20016;-88
2021/06/17 14:47:34;;;;;;;9.13;4.55;;;24.20;99.90;;;;;;6231792;22;20030;-87
2021/06/17 14:50:05;;;;;;;11.18;5.28;;;24.10;99.90;;;;;;6257228;22;20016;-88
2021/06/17 14:52:34;;;;;;;10.50;4.97;;;24.00;99.90;;;;;;6287004;22;20020;-89
2021/06/17 14:55:06;;;;;;;10.88;5.75;;;23.90;99.90;;;;;;6248719;22;20012;-88
2021/06/17 14:58:12;;;;;;;10.77;5.60;;;23.80;99.90;;;;;;6233930;22;20019;-87
2021/06/17 15:00:59;;;;;;;13.82;5.95;;;23.80;99.90;;;;;;6240016;22;20016;-88
2021/06/17 15:03:29;;;;;;;8.38;5.93;;;23.80;99.90;;;;;;6259464;22;20022;-89
2021/06/17 15:06:15;;;;;;;7.43;4.82;;;23.70;99.90;;;;;;6259797;22;20020;-90
2021/06/17 15:08:59;;;;;;;12.50;6.93;;;23.60;99.90;;;;;;6228818;22;20015;-87
2021/06/17 15:11:29;;;;;;;11.27;5.63;;;23.50;99.90;;;;;;6256095;22;20020;-89
2021/06/17 15:14:03;;;;;;;8.88;5.03;;;23.40;99.90;;;;;;6183088;22;20179;-88
2021/06/17 15:16:36;;;;;;;12.52;5.22;;;23.30;99.90;;;;;;6230854;22;20034;-87
2021/06/17 15:19:09;;;;;;;10.40;5.55;;;23.10;99.90;;;;;;6229921;22;20016;-86
2021/06/17 15:21:39;;;;;;;7.75;5.35;;;23.10;99.90;;;;;;6277949;22;20016;-86
2021/06/17 15:24:08;;;;;;;12.32;5.97;;;22.90;99.90;;;;;;6224723;22;20472;-85
2021/06/17 15:26:38;;;;;;;12.27;7.00;;;22.70;99.90;;;;;;6225594;22;20018;-86
2021/06/17 15:29:06;;;;;;;9.75;6.13;;;22.60;99.90;;;;;;6228792;22;20020;-87
2021/06/17 15:31:37;;;;;;;18.80;8.90;;;22.40;99.90;;;;;;6249951;22;20077;-86
2021/06/17 15:34:06;;;;;;;13.93;8.88;;;22.30;99.90;;;;;;6251091;22;20015;-87
2021/06/17 15:36:36;;;;;;;14.63;9.10;;;22.30;99.90;;;;;;6281138;22;20055;-87
2021/06/17 15:39:05;;;;;;;16.65;10.05;;;22.10;99.90;;;;;;6234546;22;20015;-86
2021/06/17 15:41:38;;;;;;;16.13;9.07;;;22.00;99.90;;;;;;6264678;22;20202;-86
2021/06/17 15:44:14;;;;;;;17.65;10.02;;;21.90;99.90;;;;;;6238086;22;20019;-87
2021/06/17 15:47:07;;;;;;;15.63;10.53;;;21.80;99.90;;;;;;6257379;22;20031;-90
2021/06/17 15:50:26;;;;;;;14.75;8.07;;;21.80;99.90;;;;;;6297000;22;20031;-86
2021/06/17 15:53:07;;;;;;;14.63;8.43;;;21.60;99.90;;;;;;6200740;22;20022;-87
2021/06/17 15:55:47;;;;;;;13.15;8.45;;;21.50;99.90;;;;;;6239864;22;20027;-87
2021/06/17 15:58:19;;;;;;;15.45;9.38;;;21.20;99.90;;;;;;6215035;22;20022;-87
2021/06/17 16:00:48;;;;;;;13.10;7.75;;;21.20;99.90;;;;;;6214126;22;20023;-87